首页
METAR-TAF:

METAR-TAF

机场 :

热舒夫, 波兰

纬度: 50-06N, 经度: 022-03E, 海拔: 200米

当前天气观测

该预报发布于30分钟前的20:30 UTC
风速6节,风向东转东北
温度 17°C
湿度 82%
气压 1027 hPa
能见度10公里或以上
1500米以下无云,无积雨云

METAR: EPRZ 222030Z 06006KT CAVOK 17/14 Q1027

时间: 23:00 (21:00 UTC)

预报

该预报发布于3小时和30分钟前的17:30 UTC
预报有效从22日的 18点(UTC)到 23日的 18点(UTC)
风速5节,风向
能见度10公里或以上
散云层高于4000英尺
短暂存在
从 22日的 18点(UTC)到 22日的 20点(UTC)
多云层高于3300英尺, 积雨云.
几率 40% :
短暂存在
从 22日的 18点(UTC)到 22日的 19点(UTC)
风速15节,风向多变,有时为35节阵风
雷暴, 雨
短暂存在
从 23日的 10点(UTC)到 23日的 15点(UTC)
风速15节,风向东转东北,有时为25节阵风

TAF: EPRZ 221730Z 2218/2318 09005KT 9999 SCT040 TEMPO 2218/2220 BKN033CB PROB40 TEMPO 2218/2219 VRB15G35KT TSRA TEMPO 2310/2315 07015G25KT

超过4000个机场的气象观测和天气预报(METAR&TAF报告)。

可查询的气象台以黄色和红色小点在地图上表示。

将鼠标移到小点上方,可查看气象台名称。

然后点击查看天气观测和预报。

如需切换地图:点击带黑十字的绿色按钮放大地图;点击带横线的绿色按钮缩小地图;或者点击绿色箭头查看邻近地区的地图。


METAR-TAF: